Time;durP1;ratioP1;P1;durP2;ratioP2;P2;SDS_P1;SDS_P2;PMS_P1;PMS_P2;Temp;Humidity;BMP_temperature;BMP_pressure;BME280_temperature;BME280_humidity;BME280_pressure;Samples;Min_cycle;Max_cycle;Signal;HPM_P1;HPM_P2
2023/04/09 00:00:36;;;;;;;44.47;20.83;;;8.50;99.90;;;;;;5060090;28;20486;-83
2023/04/09 00:03:02;;;;;;;39.95;18.33;;;8.50;99.90;;;;;;5060715;28;20073;-83
2023/04/09 00:05:27;;;;;;;36.70;18.95;;;8.50;99.90;;;;;;5065167;28;20059;-84
2023/04/09 00:07:53;;;;;;;37.92;17.75;;;8.50;99.90;;;;;;5063462;28;20087;-83
2023/04/09 00:10:19;;;;;;;40.15;17.35;;;9.40;99.90;;;;;;5059591;28;20434;-85
2023/04/09 00:12:45;;;;;;;43.38;23.00;;;8.40;99.90;;;;;;5060885;28;20060;-82
2023/04/09 00:15:11;;;;;;;35.13;16.23;;;8.50;99.90;;;;;;5058919;28;20482;-85
2023/04/09 00:17:37;;;;;;;35.13;17.70;;;8.40;99.90;;;;;;5052898;28;20098;-83
2023/04/09 00:20:03;;;;;;;38.15;16.83;;;8.40;99.90;;;;;;5063223;28;20040;-83
2023/04/09 00:22:29;;;;;;;38.15;16.13;;;8.40;99.90;;;;;;5063140;28;20048;-84
2023/04/09 00:24:54;;;;;;;32.00;15.80;;;8.70;99.90;;;;;;5063722;28;20455;-82
2023/04/09 00:27:20;;;;;;;32.40;15.73;;;8.40;99.90;;;;;;5061961;28;20062;-83
2023/04/09 00:29:46;;;;;;;30.15;15.07;;;8.40;99.90;;;;;;5065074;28;20147;-82
2023/04/09 00:32:12;;;;;;;26.60;13.52;;;8.90;99.90;;;;;;5059697;28;20036;-82
2023/04/09 00:34:38;;;;;;;30.60;14.73;;;9.20;99.90;;;;;;5063743;28;20408;-83
2023/04/09 00:37:04;;;;;;;30.77;15.32;;;8.40;99.90;;;;;;5057936;28;20045;-83
2023/04/09 00:39:30;;;;;;;29.73;15.02;;;8.30;99.90;;;;;;5067576;28;20079;-83
2023/04/09 00:42:01;;;;;;;30.80;15.93;;;8.40;99.90;;;;;;5069599;28;20121;-82
2023/04/09 00:44:27;;;;;;;33.20;14.10;;;8.30;99.90;;;;;;5059615;28;20045;-82
2023/04/09 00:46:54;;;;;;;29.70;14.82;;;8.60;99.90;;;;;;5057428;28;20052;-83
2023/04/09 00:49:20;;;;;;;29.65;13.60;;;9.30;99.90;;;;;;5061330;28;20049;-83
2023/04/09 00:51:47;;;;;;;30.45;14.25;;;8.30;99.90;;;;;;5068040;28;20143;-83
2023/04/09 00:54:13;;;;;;;22.58;11.25;;;8.30;99.90;;;;;;5056119;28;20362;-83
2023/04/09 00:56:41;;;;;;;22.02;11.50;;;8.30;99.90;;;;;;5060777;28;20045;-83
2023/04/09 00:59:07;;;;;;;24.95;12.48;;;8.70;99.90;;;;;;5062843;28;20482;-83
2023/04/09 01:01:32;;;;;;;24.48;11.38;;;8.20;99.90;;;;;;5062861;28;20112;-83
2023/04/09 01:03:59;;;;;;;25.70;12.50;;;8.30;99.90;;;;;;5063084;28;20140;-83
2023/04/09 01:06:49;;;;;;;28.70;13.63;;;8.80;99.90;;;;;;5054639;28;20029;-82
2023/04/09 01:09:29;;;;;;;25.92;12.35;;;8.20;99.90;;;;;;5066043;28;20094;-83
2023/04/09 01:12:18;;;;;;;23.80;12.88;;;8.90;99.90;;;;;;5056173;28;20032;-85
2023/04/09 01:15:13;;;;;;;24.13;11.52;;;8.20;99.90;;;;;;5062186;28;20389;-82
2023/04/09 01:17:51;;;;;;;23.40;11.07;;;8.20;99.90;;;;;;5061863;28;20509;-82
2023/04/09 01:20:36;;;;;;;23.63;12.40;;;8.20;99.90;;;;;;5064091;28;20051;-84
2023/04/09 01:23:18;;;;;;;23.33;11.00;;;8.30;99.90;;;;;;4986117;28;20049;-84
2023/04/09 01:25:52;;;;;;;23.27;11.65;;;8.20;99.90;;;;;;4992681;28;20188;-83
2023/04/09 01:28:27;;;;;;;23.33;11.35;;;8.20;99.90;;;;;;4992578;28;20424;-83
2023/04/09 01:30:57;;;;;;;21.60;10.43;;;8.20;99.90;;;;;;4991876;28;20054;-83
2023/04/09 01:33:25;;;;;;;22.25;10.77;;;8.40;99.90;;;;;;4992038;28;20302;-82
2023/04/09 01:35:53;;;;;;;19.05;10.13;;;8.20;99.90;;;;;;4992315;28;20587;-83
2023/04/09 01:38:21;;;;;;;20.42;9.43;;;8.90;99.90;;;;;;4976397;28;20132;-83
2023/04/09 01:40:48;;;;;;;20.52;11.10;;;8.20;99.90;;;;;;4992381;28;20050;-83
2023/04/09 01:43:15;;;;;;;22.45;11.00;;;8.30;99.90;;;;;;4992527;28;20046;-84
2023/04/09 01:45:43;;;;;;;24.15;10.60;;;8.10;99.90;;;;;;4992707;28;20038;-83
2023/04/09 01:48:09;;;;;;;22.23;10.32;;;9.10;99.90;;;;;;4991669;28;20158;-84
2023/04/09 01:50:36;;;;;;;20.73;9.73;;;8.10;99.90;;;;;;4976075;28;20041;-85
2023/04/09 01:53:02;;;;;;;18.20;8.93;;;8.20;99.90;;;;;;4992145;28;20069;-85
2023/04/09 01:55:28;;;;;;;20.75;10.02;;;8.80;99.90;;;;;;4992313;28;20038;-83
2023/04/09 01:57:53;;;;;;;20.58;9.45;;;8.30;99.90;;;;;;4992192;28;20414;-83
2023/04/09 02:00:19;;;;;;;21.88;9.65;;;8.90;99.90;;;;;;5034531;28;20060;-83
2023/04/09 02:03:00;;;;;;;19.50;9.80;;;8.40;99.90;;;;;;5061329;28;20123;-83
2023/04/09 02:05:30;;;;;;;19.13;9.23;;;8.10;99.90;;;;;;5060891;28;20178;-83
2023/04/09 02:08:00;;;;;;;19.70;10.02;;;8.10;99.90;;;;;;5059384;28;20146;-84
2023/04/09 02:10:29;;;;;;;19.23;10.02;;;8.10;99.90;;;;;;5061649;28;20044;-84
2023/04/09 02:12:56;;;;;;;17.88;9.10;;;8.60;99.90;;;;;;5060289;28;20048;-84
2023/04/09 02:15:23;;;;;;;17.00;8.38;;;9.00;99.90;;;;;;5059835;28;20528;-83
2023/04/09 02:17:49;;;;;;;15.18;7.45;;;8.20;99.90;;;;;;5059641;28;20037;-83
2023/04/09 02:20:18;;;;;;;13.77;7.47;;;9.10;99.90;;;;;;5061957;28;20048;-83
2023/04/09 02:22:47;;;;;;;15.15;7.63;;;8.50;99.90;;;;;;5061135;28;20044;-83
2023/04/09 02:25:14;;;;;;;15.60;7.43;;;9.20;99.90;;;;;;5061233;28;20033;-83
2023/04/09 02:27:40;;;;;;;15.25;7.95;;;8.40;99.90;;;;;;5060492;28;20101;-84
2023/04/09 02:30:06;;;;;;;16.33;7.95;;;8.90;99.90;;;;;;5064329;28;20123;-83
2023/04/09 02:32:32;;;;;;;16.20;7.90;;;8.00;99.90;;;;;;5063271;28;20051;-84
2023/04/09 02:34:57;;;;;;;15.18;7.45;;;8.00;99.90;;;;;;5062962;28;20041;-83
2023/04/09 02:37:23;;;;;;;16.85;7.78;;;8.20;99.90;;;;;;5064077;28;20075;-83
2023/04/09 02:39:49;;;;;;;19.30;9.27;;;8.10;99.90;;;;;;5063260;28;20037;-83
2023/04/09 02:42:14;;;;;;;15.70;7.10;;;8.30;99.90;;;;;;5060956;28;20044;-82
2023/04/09 02:44:40;;;;;;;18.60;7.97;;;7.90;99.90;;;;;;5063717;28;20443;-83
2023/04/09 02:47:05;;;;;;;15.40;7.18;;;8.60;99.90;;;;;;5061223;28;20102;-82
2023/04/09 02:49:34;;;;;;;13.73;6.88;;;7.90;99.90;;;;;;5059480;28;20497;-83
2023/04/09 02:51:59;;;;;;;14.02;7.00;;;7.90;99.90;;;;;;5059077;28;20037;-83
2023/04/09 02:54:25;;;;;;;14.23;6.90;;;8.60;99.90;;;;;;5051539;28;20442;-82
2023/04/09 02:56:50;;;;;;;10.32;5.72;;;7.90;99.90;;;;;;5060928;28;20040;-83
2023/04/09 02:59:16;;;;;;;15.95;7.18;;;7.90;99.90;;;;;;5062542;28;20106;-82
2023/04/09 03:01:42;;;;;;;13.20;7.10;;;8.60;99.90;;;;;;5063704;28;20447;-83
2023/04/09 03:04:07;;;;;;;14.10;5.93;;;7.90;99.90;;;;;;5063639;28;20509;-82
2023/04/09 03:06:33;;;;;;;13.25;6.60;;;8.20;99.90;;;;;;5059950;28;20045;-82
2023/04/09 03:08:59;;;;;;;10.70;5.55;;;8.40;99.90;;;;;;5060540;28;20036;-83
2023/04/09 03:11:24;;;;;;;11.07;5.22;;;7.80;99.90;;;;;;5061012;28;20170;-83
2023/04/09 03:13:50;;;;;;;13.20;6.35;;;8.50;99.90;;;;;;5062529;28;20045;-82
2023/04/09 03:16:16;;;;;;;11.75;5.97;;;8.90;99.90;;;;;;5063712;28;20040;-84
2023/04/09 03:18:41;;;;;;;10.55;5.65;;;7.90;99.90;;;;;;5060673;28;20127;-83
2023/04/09 03:21:08;;;;;;;12.88;6.90;;;8.80;99.90;;;;;;5060521;28;20048;-83
2023/04/09 03:23:34;;;;;;;11.82;6.03;;;8.50;99.90;;;;;;5059720;28;20381;-83
2023/04/09 03:26:05;;;;;;;13.80;6.20;;;8.00;99.90;;;;;;5061061;28;20032;-85
2023/04/09 03:28:31;;;;;;;15.05;7.03;;;7.80;99.90;;;;;;5060327;28;20037;-83
2023/04/09 03:30:57;;;;;;;13.57;6.45;;;7.80;99.90;;;;;;5061467;28;20056;-83
2023/04/09 03:33:24;;;;;;;13.43;6.30;;;8.00;99.90;;;;;;5058986;28;20037;-83
2023/04/09 03:35:50;;;;;;;13.85;6.35;;;8.90;99.90;;;;;;5060152;28;20111;-83
2023/04/09 03:38:16;;;;;;;11.88;5.88;;;8.00;99.90;;;;;;5057225;28;20037;-83
2023/04/09 03:40:41;;;;;;;13.23;6.03;;;8.90;99.90;;;;;;5061937;28;20063;-83
2023/04/09 03:43:07;;;;;;;12.90;6.55;;;8.50;99.90;;;;;;5060381;28;20120;-83
2023/04/09 03:45:33;;;;;;;12.43;5.75;;;7.70;99.90;;;;;;5060255;28;20025;-83
2023/04/09 03:47:58;;;;;;;17.70;8.05;;;7.70;99.90;;;;;;5060545;28;20087;-83
2023/04/09 03:50:24;;;;;;;15.32;7.55;;;7.70;99.90;;;;;;5063344;28;20466;-83
2023/04/09 03:52:50;;;;;;;15.77;7.53;;;7.70;99.90;;;;;;5062163;28;20124;-84
2023/04/09 03:55:16;;;;;;;16.77;8.30;;;8.10;99.90;;;;;;5060845;28;20132;-82
2023/04/09 03:57:41;;;;;;;17.15;7.30;;;8.10;99.90;;;;;;5061163;28;20052;-82
2023/04/09 04:00:08;;;;;;;17.52;8.20;;;7.60;99.90;;;;;;5063408;28;20075;-82
2023/04/09 04:02:33;;;;;;;16.50;8.00;;;7.60;99.90;;;;;;5066980;28;20043;-82
2023/04/09 04:04:59;;;;;;;15.80;7.25;;;7.60;99.90;;;;;;5067009;28;20053;-82
2023/04/09 04:07:25;;;;;;;15.05;7.50;;;7.50;99.90;;;;;;5058209;28;20041;-82
2023/04/09 04:09:50;;;;;;;17.38;8.32;;;8.40;99.90;;;;;;5067040;28;20118;-82
2023/04/09 04:12:16;;;;;;;20.17;8.27;;;8.50;99.90;;;;;;5063789;28;20131;-83
2023/04/09 04:14:42;;;;;;;18.63;8.93;;;8.20;99.90;;;;;;5063474;28;20051;-82
2023/04/09 04:17:07;;;;;;;15.30;7.53;;;7.40;99.90;;;;;;5066381;28;20045;-82
2023/04/09 04:19:36;;;;;;;17.88;9.07;;;7.40;99.90;;;;;;5063412;28;20055;-83
2023/04/09 04:22:01;;;;;;;17.50;8.40;;;8.00;99.90;;;;;;5063409;28;20041;-82
2023/04/09 04:24:27;;;;;;;16.95;9.38;;;8.10;99.90;;;;;;5063153;28;20056;-83
2023/04/09 04:26:53;;;;;;;17.48;9.10;;;7.30;99.90;;;;;;5063298;28;20037;-82
2023/04/09 04:29:19;;;;;;;16.55;8.20;;;7.30;99.90;;;;;;5056549;28;20094;-83
2023/04/09 04:31:44;;;;;;;19.67;8.80;;;7.70;99.90;;;;;;5062349;28;20044;-82
2023/04/09 04:34:10;;;;;;;18.30;8.80;;;7.50;99.90;;;;;;5069846;28;20481;-83
2023/04/09 04:36:36;;;;;;;19.67;8.48;;;8.40;99.90;;;;;;5061623;28;20079;-82
2023/04/09 04:39:02;;;;;;;17.67;8.35;;;7.50;99.90;;;;;;5067896;28;20142;-82
2023/04/09 04:41:28;;;;;;;17.05;8.13;;;7.20;99.90;;;;;;5063725;28;20041;-83
2023/04/09 04:43:54;;;;;;;18.27;9.07;;;8.00;99.90;;;;;;5063503;28;20041;-82
2023/04/09 04:46:19;;;;;;;19.00;8.50;;;7.20;99.90;;;;;;5055421;28;20037;-82
2023/04/09 04:48:45;;;;;;;17.15;8.02;;;7.70;99.90;;;;;;5065467;28;20110;-83
2023/04/09 04:51:11;;;;;;;20.40;9.38;;;7.50;99.90;;;;;;5055288;28;20041;-82
2023/04/09 04:53:39;;;;;;;19.17;9.30;;;7.20;99.90;;;;;;5063542;28;20504;-82
2023/04/09 04:56:05;;;;;;;17.10;8.77;;;8.00;99.90;;;;;;5065891;28;20396;-83
2023/04/09 04:58:30;;;;;;;17.95;8.18;;;7.20;99.90;;;;;;5064841;28;20044;-83
2023/04/09 05:00:56;;;;;;;17.63;8.57;;;7.80;99.90;;;;;;5065373;28;20122;-83
2023/04/09 05:03:22;;;;;;;16.85;8.57;;;7.20;99.90;;;;;;5059402;28;20037;-82
2023/04/09 05:05:47;;;;;;;16.13;8.48;;;8.00;99.90;;;;;;5064084;28;20049;-84
2023/04/09 05:08:13;;;;;;;19.67;9.05;;;8.00;99.90;;;;;;5053399;28;20499;-82
2023/04/09 05:10:42;;;;;;;19.13;8.90;;;7.30;99.90;;;;;;5055292;28;20489;-82
2023/04/09 05:13:08;;;;;;;18.05;9.68;;;7.20;99.90;;;;;;5054820;28;20405;-83
2023/04/09 05:15:40;;;;;;;19.38;8.68;;;7.70;99.90;;;;;;5065225;28;20033;-82
2023/04/09 05:18:06;;;;;;;18.25;9.18;;;7.40;99.90;;;;;;5058392;28;20041;-82
2023/04/09 05:24:12;;;;;;;21.10;10.48;;;7.30;99.90;;;;;;5050853;28;20078;-82
2023/04/09 05:26:38;;;;;;;19.98;10.00;;;7.30;99.90;;;;;;5065764;28;20132;-82
2023/04/09 05:29:04;;;;;;;20.83;11.07;;;7.90;99.90;;;;;;5066443;28;20036;-82
2023/04/09 05:31:29;;;;;;;16.63;9.00;;;8.30;99.90;;;;;;5061881;28;20398;-82
2023/04/09 05:33:55;;;;;;;20.33;10.73;;;7.40;99.90;;;;;;5054525;28;20045;-83
2023/04/09 05:36:21;;;;;;;23.08;11.60;;;7.50;99.90;;;;;;5062076;28;20037;-84
2023/04/09 05:38:47;;;;;;;20.50;10.52;;;7.40;99.90;;;;;;5065243;28;20054;-82
2023/04/09 05:41:13;;;;;;;20.98;10.40;;;7.70;99.90;;;;;;5064954;28;20068;-82
2023/04/09 05:43:39;;;;;;;18.52;10.00;;;7.40;99.90;;;;;;5055165;28;20047;-81
2023/04/09 05:46:05;;;;;;;21.98;10.65;;;7.50;99.90;;;;;;5065521;28;20041;-82
2023/04/09 05:48:33;;;;;;;19.98;9.38;;;7.50;99.90;;;;;;5061909;28;20523;-82
2023/04/09 05:50:59;;;;;;;19.42;9.52;;;7.50;99.90;;;;;;5070745;28;20045;-82
2023/04/09 05:53:24;;;;;;;19.50;9.57;;;7.50;99.90;;;;;;5057287;28;20456;-82
2023/04/09 05:55:50;;;;;;;19.45;10.27;;;7.50;99.90;;;;;;5060581;28;20143;-82
2023/04/09 05:58:20;;;;;;;24.38;12.60;;;7.60;99.90;;;;;;5060102;28;20060;-82
2023/04/09 06:00:46;;;;;;;23.55;12.55;;;7.80;99.90;;;;;;5062963;28;20040;-82
2023/04/09 06:03:11;;;;;;;23.73;11.60;;;7.20;99.90;;;;;;5067311;28;20153;-82
2023/04/09 06:05:37;;;;;;;23.90;11.30;;;7.60;99.90;;;;;;5060775;28;20109;-82
2023/04/09 06:08:03;;;;;;;25.15;12.20;;;8.00;99.90;;;;;;5053375;28;20051;-83
2023/04/09 06:10:31;;;;;;;21.08;10.60;;;7.70;99.90;;;;;;5063506;28;20037;-82
2023/04/09 06:12:57;;;;;;;19.98;10.70;;;7.70;99.90;;;;;;5061582;28;20048;-82
2023/04/09 06:15:22;;;;;;;24.75;12.15;;;7.90;99.90;;;;;;5061417;28;20051;-82
2023/04/09 06:17:48;;;;;;;18.25;10.57;;;7.80;99.90;;;;;;5060205;28;20055;-83
2023/04/09 06:20:14;;;;;;;26.80;13.30;;;8.60;99.90;;;;;;5059060;28;20041;-83
2023/04/09 06:22:39;;;;;;;26.20;12.43;;;7.80;99.90;;;;;;5059532;28;20055;-85
2023/04/09 06:25:06;;;;;;;31.15;14.07;;;8.60;99.90;;;;;;5061939;28;20029;-82
2023/04/09 06:27:31;;;;;;;20.23;10.55;;;7.90;99.90;;;;;;5095675;28;20435;-82
2023/04/09 06:29:57;;;;;;;25.35;12.25;;;8.00;99.90;;;;;;5055432;28;20025;-83
2023/04/09 06:32:22;;;;;;;24.38;12.18;;;8.80;99.90;;;;;;5062911;28;20051;-83
2023/04/09 06:34:48;;;;;;;27.02;11.80;;;8.00;99.90;;;;;;5064200;28;20138;-83
2023/04/09 06:37:14;;;;;;;20.60;10.75;;;8.00;99.90;;;;;;5060200;28;20481;-83
2023/04/09 06:39:40;;;;;;;19.17;10.68;;;8.80;99.90;;;;;;5060926;28;20037;-83
2023/04/09 06:42:06;;;;;;;19.60;10.07;;;8.20;99.90;;;;;;5061054;28;20101;-83
2023/04/09 06:44:35;;;;;;;18.10;9.27;;;8.90;99.90;;;;;;5058095;28;20036;-83
2023/04/09 06:47:01;;;;;;;16.73;8.98;;;8.30;99.90;;;;;;5057735;28;20053;-81
2023/04/09 06:49:27;;;;;;;17.33;8.90;;;8.20;99.90;;;;;;5056519;28;20101;-86
2023/04/09 06:51:52;;;;;;;17.02;9.02;;;8.30;99.90;;;;;;5038967;28;20494;-82
2023/04/09 06:54:19;;;;;;;19.20;10.00;;;8.70;99.90;;;;;;5057044;28;20040;-82
2023/04/09 06:56:45;;;;;;;20.00;10.43;;;8.30;99.90;;;;;;5064022;28;20063;-82
2023/04/09 06:59:10;;;;;;;29.65;11.80;;;8.40;99.90;;;;;;5062518;28;20044;-83
2023/04/09 07:01:37;;;;;;;16.33;9.40;;;8.30;99.90;;;;;;5061936;28;20036;-83
2023/04/09 07:04:03;;;;;;;17.75;9.52;;;8.30;99.90;;;;;;5051299;28;20057;-85
2023/04/09 07:06:29;;;;;;;18.83;8.82;;;8.40;99.90;;;;;;5060727;28;20472;-82
2023/04/09 07:08:55;;;;;;;18.17;9.65;;;9.20;99.90;;;;;;5065830;28;20052;-81
2023/04/09 07:11:20;;;;;;;17.65;10.07;;;8.80;99.90;;;;;;5059881;28;20119;-81
2023/04/09 07:13:46;;;;;;;20.77;10.73;;;8.40;99.90;;;;;;5061259;28;20072;-83
2023/04/09 07:16:12;;;;;;;21.05;11.48;;;9.20;99.90;;;;;;5060769;28;20087;-83
2023/04/09 07:18:37;;;;;;;21.73;12.25;;;8.70;99.90;;;;;;5063871;28;20052;-83
2023/04/09 07:21:03;;;;;;;21.08;11.25;;;8.40;99.90;;;;;;5060527;28;20033;-82
2023/04/09 07:23:29;;;;;;;23.77;12.05;;;8.50;99.90;;;;;;5060086;28;20053;-83
2023/04/09 07:25:55;;;;;;;25.48;12.32;;;8.40;99.90;;;;;;5066691;28;20052;-83
2023/04/09 07:28:21;;;;;;;21.83;10.90;;;8.80;99.90;;;;;;5062027;28;20044;-81
2023/04/09 07:30:46;;;;;;;28.13;13.02;;;8.50;99.90;;;;;;5063972;28;20451;-82
2023/04/09 07:33:12;;;;;;;20.55;10.13;;;8.50;99.90;;;;;;5065566;28;20048;-82
2023/04/09 07:35:38;;;;;;;20.88;9.93;;;9.30;99.90;;;;;;5065000;28;20409;-81
2023/04/09 07:38:03;;;;;;;19.95;10.77;;;8.70;99.90;;;;;;5063240;28;20524;-82
2023/04/09 07:40:29;;;;;;;16.50;8.82;;;8.80;99.90;;;;;;5056118;28;20045;-86
2023/04/09 07:42:54;;;;;;;21.00;11.63;;;8.80;99.90;;;;;;5058341;28;20041;-81
2023/04/09 07:45:20;;;;;;;19.83;9.85;;;9.50;99.90;;;;;;5063995;28;20094;-81
2023/04/09 07:47:46;;;;;;;18.58;9.68;;;9.00;99.90;;;;;;5062710;28;20056;-82
2023/04/09 07:50:12;;;;;;;16.52;8.70;;;9.00;99.90;;;;;;5057816;28;20035;-81
2023/04/09 07:52:37;;;;;;;15.23;8.27;;;9.10;99.90;;;;;;5066641;28;20048;-81
2023/04/09 07:55:03;;;;;;;13.93;7.82;;;9.80;99.90;;;;;;5066649;28;20454;-83
2023/04/09 07:57:32;;;;;;;16.63;8.43;;;9.20;99.90;;;;;;5060232;28;20402;-81
2023/04/09 07:59:58;;;;;;;21.48;10.50;;;10.00;99.90;;;;;;5067470;28;20041;-81
2023/04/09 08:02:24;;;;;;;21.15;10.57;;;9.40;99.90;;;;;;5065787;28;20056;-81
2023/04/09 08:04:50;;;;;;;20.40;9.75;;;9.60;99.90;;;;;;5056514;28;20120;-82
2023/04/09 08:07:15;;;;;;;19.20;8.70;;;9.60;99.90;;;;;;5062458;28;20573;-81
2023/04/09 08:09:41;;;;;;;15.77;8.65;;;9.60;99.90;;;;;;5068230;28;20155;-81
2023/04/09 08:12:07;;;;;;;15.98;8.35;;;9.60;99.90;;;;;;5063575;28;20044;-81
2023/04/09 08:14:32;;;;;;;15.13;8.52;;;9.60;99.90;;;;;;5064125;28;20037;-81
2023/04/09 08:16:59;;;;;;;18.70;9.07;;;9.70;99.90;;;;;;5062246;28;20501;-81
2023/04/09 08:19:24;;;;;;;16.38;8.60;;;10.10;99.90;;;;;;5063419;28;20098;-81
2023/04/09 08:21:51;;;;;;;20.30;9.88;;;9.70;99.90;;;;;;5066730;28;20040;-81
2023/04/09 08:24:17;;;;;;;19.48;10.30;;;10.40;99.90;;;;;;5058364;28;20049;-81
2023/04/09 08:26:43;;;;;;;20.95;10.38;;;9.80;99.90;;;;;;5092820;28;20067;-81
2023/04/09 08:29:10;;;;;;;25.35;11.65;;;9.90;99.90;;;;;;5066668;28;20040;-81
2023/04/09 08:31:36;;;;;;;22.65;11.50;;;9.80;99.90;;;;;;5063866;28;20028;-81
2023/04/09 08:34:02;;;;;;;21.30;10.27;;;9.80;99.90;;;;;;5062655;28;20497;-81
2023/04/09 08:36:28;;;;;;;20.65;9.73;;;9.80;99.90;;;;;;5062074;28;20037;-82
2023/04/09 08:38:55;;;;;;;15.30;8.38;;;10.40;99.90;;;;;;5064691;28;20041;-81
2023/04/09 08:41:25;;;;;;;19.88;10.00;;;9.90;99.90;;;;;;5065656;28;20037;-82
2023/04/09 08:43:52;;;;;;;19.20;9.68;;;9.90;99.90;;;;;;5061738;28;20057;-81
2023/04/09 08:46:18;;;;;;;20.33;10.10;;;10.00;99.90;;;;;;5062801;28;20033;-82
2023/04/09 08:48:45;;;;;;;18.20;10.07;;;10.70;99.90;;;;;;5057108;28;20045;-81
2023/04/09 08:51:18;;;;;;;23.55;10.90;;;10.10;99.90;;;;;;5061512;28;20129;-82
2023/04/09 08:53:52;;;;;;;23.65;10.50;;;10.10;99.90;;;;;;5054745;28;20444;-81
2023/04/09 08:56:18;;;;;;;15.98;8.82;;;10.10;99.90;;;;;;5059659;28;20033;-81
2023/04/09 08:58:45;;;;;;;20.02;9.95;;;10.20;99.90;;;;;;5062832;28;20385;-81
2023/04/09 09:01:24;;;;;;;18.20;10.00;;;10.70;99.90;;;;;;5068642;28;20036;-81
2023/04/09 09:03:57;;;;;;;23.60;13.10;;;10.30;99.90;;;;;;5072306;28;20459;-82
2023/04/09 09:06:24;;;;;;;22.98;11.40;;;10.30;99.90;;;;;;5057384;28;20044;-82
2023/04/09 09:09:03;;;;;;;23.98;12.45;;;10.50;99.90;;;;;;5065087;28;20049;-83
2023/04/09 09:11:29;;;;;;;25.35;11.85;;;10.30;99.90;;;;;;5061198;28;20051;-81
2023/04/09 09:14:03;;;;;;;24.90;12.32;;;10.30;99.90;;;;;;5062649;28;20052;-82
2023/04/09 09:16:31;;;;;;;22.15;11.73;;;10.40;99.90;;;;;;5063297;28;20037;-81
2023/04/09 09:18:57;;;;;;;20.60;10.35;;;10.40;99.90;;;;;;5065464;28;20495;-83
2023/04/09 09:21:26;;;;;;;20.50;9.85;;;10.40;99.90;;;;;;5059502;28;20098;-81
2023/04/09 09:23:52;;;;;;;17.02;8.60;;;10.50;99.90;;;;;;5059175;28;20059;-82
2023/04/09 09:26:23;;;;;;;19.30;9.32;;;10.60;99.90;;;;;;5056327;28;20505;-81
2023/04/09 09:28:49;;;;;;;19.02;8.98;;;10.70;99.90;;;;;;5057786;28;20385;-81
2023/04/09 09:31:18;;;;;;;18.27;9.38;;;10.80;99.90;;;;;;5064333;28;20127;-81
2023/04/09 09:33:45;;;;;;;19.05;9.95;;;10.80;99.90;;;;;;5055943;28;20047;-82
2023/04/09 09:36:11;;;;;;;20.20;10.32;;;10.90;99.90;;;;;;5057280;28;20048;-81
2023/04/09 09:38:54;;;;;;;19.08;8.80;;;11.00;99.90;;;;;;5061739;28;20446;-82
2023/04/09 09:41:21;;;;;;;18.00;9.30;;;11.10;99.90;;;;;;5065232;28;20033;-82
2023/04/09 09:43:47;;;;;;;16.30;8.27;;;11.20;99.90;;;;;;5060535;28;20072;-82
2023/04/09 09:46:13;;;;;;;22.38;10.07;;;11.30;99.90;;;;;;5054041;28;20029;-82
2023/04/09 09:48:39;;;;;;;22.65;11.88;;;11.60;99.90;;;;;;5094240;28;20615;-81
2023/04/09 09:51:09;;;;;;;17.77;9.68;;;11.30;99.90;;;;;;5058905;28;20111;-81
2023/04/09 09:53:36;;;;;;;18.67;10.43;;;11.40;99.90;;;;;;5061202;28;20093;-81
2023/04/09 09:56:04;;;;;;;18.25;9.57;;;11.40;99.90;;;;;;5053962;28;20620;-85
2023/04/09 09:58:39;;;;;;;17.55;9.27;;;11.40;99.90;;;;;;5063876;28;20047;-80
2023/04/09 10:01:11;;;;;;;19.35;9.25;;;11.40;99.90;;;;;;5059896;28;20043;-81
2023/04/09 10:03:38;;;;;;;14.90;8.23;;;11.50;99.90;;;;;;5061053;28;20036;-82
2023/04/09 10:06:07;;;;;;;15.50;9.00;;;11.90;99.90;;;;;;5060555;28;20578;-82
2023/04/09 10:08:36;;;;;;;20.25;9.98;;;11.80;99.90;;;;;;5061637;28;20049;-82
2023/04/09 10:11:04;;;;;;;19.52;9.45;;;11.70;99.90;;;;;;5069853;28;20460;-82
2023/04/09 10:13:42;;;;;;;20.02;10.60;;;12.10;99.90;;;;;;5064856;28;20084;-82
2023/04/09 10:16:08;;;;;;;17.17;9.18;;;12.00;99.90;;;;;;5046517;28;20111;-83
2023/04/09 10:18:34;;;;;;;20.33;11.23;;;12.00;99.90;;;;;;5061302;28;20458;-81
2023/04/09 10:21:13;;;;;;;19.77;10.40;;;12.10;99.90;;;;;;5054715;28;20048;-83
2023/04/09 10:23:43;;;;;;;15.40;8.63;;;12.20;99.90;;;;;;5056147;28;20049;-82
2023/04/09 10:26:10;;;;;;;20.40;9.77;;;12.20;99.90;;;;;;5056039;28;20102;-82
2023/04/09 10:28:38;;;;;;;21.55;10.15;;;12.40;99.90;;;;;;5065277;28;20452;-83
2023/04/09 10:31:06;;;;;;;21.00;10.35;;;12.50;99.90;;;;;;5055534;28;20036;-83
2023/04/09 10:33:32;;;;;;;19.67;9.32;;;12.50;99.90;;;;;;5064206;28;20044;-82
2023/04/09 10:36:11;;;;;;;18.50;9.68;;;12.70;99.90;;;;;;5060418;28;20040;-82
2023/04/09 10:38:42;;;;;;;17.45;9.82;;;12.80;99.90;;;;;;5100251;28;20436;-83
2023/04/09 10:41:24;;;;;;;16.05;9.23;;;12.80;99.90;;;;;;5053209;28;20052;-82
2023/04/09 10:43:49;;;;;;;20.05;11.10;;;12.90;99.90;;;;;;5058293;28;20045;-82
2023/04/09 10:46:34;;;;;;;17.63;10.38;;;13.10;99.90;;;;;;5058432;28;20488;-82
2023/04/09 10:49:17;;;;;;;16.10;9.20;;;13.30;99.90;;;;;;5059350;28;20080;-83
2023/04/09 10:52:04;;;;;;;17.63;8.43;;;13.50;99.90;;;;;;5087878;28;20127;-83
2023/04/09 10:54:32;;;;;;;20.42;11.43;;;14.00;99.90;;;;;;5054778;28;20036;-82
2023/04/09 10:57:07;;;;;;;20.13;11.13;;;14.40;99.90;;;;;;5057162;28;20394;-84
2023/04/09 10:59:33;;;;;;;17.48;10.43;;;14.60;99.90;;;;;;5063227;28;20069;-83
2023/04/09 11:01:59;;;;;;;15.30;9.07;;;14.90;99.90;;;;;;5053211;28;20084;-82
2023/04/09 11:04:37;;;;;;;13.68;8.77;;;14.90;99.90;;;;;;5060206;28;20056;-86
2023/04/09 11:07:05;;;;;;;19.65;10.32;;;14.90;99.90;;;;;;5061505;28;20049;-83
2023/04/09 11:09:34;;;;;;;16.75;9.93;;;14.50;99.90;;;;;;5063965;28;20442;-82
2023/04/09 11:12:00;;;;;;;19.67;10.85;;;14.60;99.90;;;;;;5061387;28;20032;-83
2023/04/09 11:14:26;;;;;;;16.42;9.70;;;14.50;99.90;;;;;;5059191;28;20049;-84
2023/04/09 11:16:52;;;;;;;16.73;9.15;;;14.60;99.90;;;;;;5055118;28;20409;-84
2023/04/09 11:19:19;;;;;;;15.88;9.70;;;14.70;99.90;;;;;;5061694;28;20041;-82
2023/04/09 11:21:47;;;;;;;18.70;10.48;;;14.80;99.90;;;;;;5058836;28;20133;-85
2023/04/09 11:24:13;;;;;;;16.33;10.80;;;15.00;99.90;;;;;;5060370;28;20037;-83
2023/04/09 11:26:39;;;;;;;16.27;9.35;;;14.90;99.90;;;;;;5054703;28;20076;-83
2023/04/09 11:29:08;;;;;;;15.60;8.68;;;15.00;99.90;;;;;;5060565;28;20083;-83
2023/04/09 11:31:34;;;;;;;14.35;8.55;;;15.20;99.90;;;;;;5057844;28;20107;-83
2023/04/09 11:34:00;;;;;;;17.23;9.20;;;15.50;99.90;;;;;;5055298;28;20389;-83
2023/04/09 11:36:26;;;;;;;16.45;9.30;;;15.60;99.90;;;;;;5071680;28;20429;-83
2023/04/09 11:38:54;;;;;;;17.88;9.30;;;15.70;99.90;;;;;;5070479;28;20098;-83
2023/04/09 11:41:45;;;;;;;16.30;9.48;;;15.80;99.90;;;;;;5059151;28;20049;-83
2023/04/09 11:44:11;;;;;;;13.82;7.68;;;16.10;99.90;;;;;;5048558;28;20103;-84
2023/04/09 11:46:41;;;;;;;14.70;7.95;;;16.20;99.90;;;;;;5055590;28;20065;-84
2023/04/09 11:49:08;;;;;;;13.13;8.07;;;16.50;99.90;;;;;;5058920;28;20045;-82
2023/04/09 11:51:34;;;;;;;13.40;7.47;;;16.80;99.90;;;;;;5054953;28;20050;-83
2023/04/09 11:54:06;;;;;;;14.23;7.45;;;16.80;99.90;;;;;;5057319;28;20052;-84
2023/04/09 11:56:35;;;;;;;12.23;6.95;;;16.90;99.90;;;;;;5052620;28;20072;-84
2023/04/09 11:59:02;;;;;;;15.48;8.85;;;17.00;99.90;;;;;;5062118;28;20434;-85
2023/04/09 12:01:32;;;;;;;15.30;9.30;;;17.00;99.90;;;;;;5062621;28;20113;-84
2023/04/09 12:03:58;;;;;;;16.40;8.60;;;17.00;99.90;;;;;;5054096;28;20501;-84
2023/04/09 12:06:25;;;;;;;16.00;9.23;;;17.30;99.90;;;;;;5063505;28;20054;-85
2023/04/09 12:08:58;;;;;;;14.43;8.63;;;17.30;99.90;;;;;;5055139;28;20564;-84
2023/04/09 12:11:31;;;;;;;15.70;9.55;;;17.40;99.90;;;;;;5065363;28;20052;-85
2023/04/09 12:14:04;;;;;;;14.45;8.35;;;17.50;99.90;;;;;;5061388;28;20045;-84
2023/04/09 12:16:34;;;;;;;16.08;9.10;;;17.60;99.90;;;;;;5043105;28;20073;-84
2023/04/09 12:19:07;;;;;;;14.90;8.18;;;17.40;99.90;;;;;;5055187;28;20073;-85
2023/04/09 12:21:53;;;;;;;13.50;8.25;;;17.50;99.90;;;;;;5054549;28;20053;-83
2023/04/09 12:24:20;;;;;;;14.75;8.35;;;17.40;99.90;;;;;;5070390;28;20044;-83
2023/04/09 12:26:47;;;;;;;16.88;9.30;;;17.20;99.90;;;;;;5057268;28;20040;-86
2023/04/09 12:29:17;;;;;;;17.70;9.63;;;16.90;99.90;;;;;;5058392;28;20040;-82
2023/04/09 12:31:43;;;;;;;14.00;8.30;;;16.70;99.90;;;;;;5062818;28;20049;-83
2023/04/09 12:34:09;;;;;;;14.73;8.43;;;16.40;99.90;;;;;;5055696;28;20044;-83
2023/04/09 12:36:34;;;;;;;12.18;7.25;;;16.50;99.90;;;;;;5065816;28;20090;-83
2023/04/09 12:39:00;;;;;;;14.05;7.28;;;16.80;99.90;;;;;;5061123;28;20485;-82
2023/04/09 12:41:26;;;;;;;17.20;8.68;;;17.10;99.90;;;;;;5063224;28;20544;-83
2023/04/09 12:43:52;;;;;;;14.50;8.02;;;17.20;99.90;;;;;;5063401;28;20059;-82
2023/04/09 12:46:18;;;;;;;14.00;8.30;;;17.10;99.90;;;;;;5059626;28;20405;-83